Terminal Aerodrome Forecast
Issued by NWS Missoula, MT

Home | Current Version | Previous Version | Text Only | Print | Product List | Glossary On
Versions: 1 2 3 4 5 6 7 8 9 10 11 12 13 14 15 16 17 18
000
FTUS45 KMSO 291722
TAFMSO
TAF
KMSO 291722Z 2918/3018 12005KT P6SM BKN150
     FM292100 30010KT P6SM SCT050 BKN150
     FM300200 VRB04KT P6SM BKN100=

USA.gov is the U.S. government's official web portal to all federal, state and local government web resources and services.